createdAt,value
2023-04-29T00:01:23.505Z,21.94
2023-04-29T00:03:50.679Z,21.94
2023-04-29T00:06:18.297Z,21.93
2023-04-29T00:08:45.312Z,21.91
2023-04-29T00:11:12.278Z,21.88
2023-04-29T00:13:41.265Z,21.88
2023-04-29T00:16:10.551Z,21.84
2023-04-29T00:18:38.262Z,21.82
2023-04-29T00:21:06.418Z,21.88
2023-04-29T00:23:34.071Z,21.86
2023-04-29T00:26:01.045Z,21.82
2023-04-29T00:28:27.948Z,21.79
2023-04-29T00:30:54.886Z,21.77
2023-04-29T00:33:21.957Z,21.72
2023-04-29T00:35:48.943Z,21.71
2023-04-29T00:38:15.890Z,21.69
2023-04-29T00:40:44.053Z,21.67
2023-04-29T00:43:11.098Z,21.66
2023-04-29T00:45:37.956Z,21.62
2023-04-29T00:48:05.317Z,21.59
2023-04-29T00:50:32.534Z,21.60
2023-04-29T00:53:00.666Z,21.56
2023-04-29T00:55:27.808Z,21.54
2023-04-29T00:57:54.932Z,21.53
2023-04-29T01:00:26.693Z,21.53
2023-04-29T01:02:55.265Z,21.51
2023-04-29T01:05:22.236Z,21.51
2023-04-29T01:07:52.312Z,21.46
2023-04-29T01:10:23.133Z,21.47
2023-04-29T01:13:00.275Z,21.44
2023-04-29T01:15:31.125Z,21.44
2023-04-29T01:18:07.489Z,21.41
2023-04-29T01:20:35.501Z,21.40
2023-04-29T01:23:02.538Z,21.40
2023-04-29T01:25:29.444Z,21.39
2023-04-29T01:28:03.104Z,21.35
2023-04-29T01:30:33.332Z,21.34
2023-04-29T01:33:00.599Z,21.34
2023-04-29T01:35:29.976Z,21.32
2023-04-29T01:37:58.616Z,21.30
2023-04-29T01:40:30.772Z,21.26
2023-04-29T01:43:12.209Z,21.26
2023-04-29T01:45:41.798Z,21.23
2023-04-29T01:48:10.049Z,21.22
2023-04-29T01:50:37.036Z,21.20
2023-04-29T01:53:04.036Z,21.18
2023-04-29T01:55:30.959Z,21.18
2023-04-29T01:57:58.057Z,21.16
2023-04-29T02:00:25.102Z,21.14
2023-04-29T02:02:52.259Z,21.13
2023-04-29T02:05:19.449Z,21.12
2023-04-29T02:07:46.449Z,21.11
2023-04-29T02:10:13.754Z,21.11
2023-04-29T02:12:41.459Z,21.08
2023-04-29T02:15:09.044Z,21.07
2023-04-29T02:17:36.116Z,21.06
2023-04-29T02:20:03.127Z,21.05
2023-04-29T02:22:30.131Z,21.03
2023-04-29T02:24:57.433Z,21.01
2023-04-29T02:27:24.469Z,21.02
2023-04-29T02:29:52.229Z,21.00
2023-04-29T02:32:20.548Z,20.98
2023-04-29T02:34:47.559Z,20.98
2023-04-29T02:37:14.552Z,20.99
2023-04-29T02:39:41.837Z,20.97
2023-04-29T02:42:08.937Z,20.94
2023-04-29T02:44:35.983Z,20.94
2023-04-29T02:47:03.041Z,20.95
2023-04-29T02:49:29.987Z,20.92
2023-04-29T02:51:56.941Z,20.93
2023-04-29T02:54:23.928Z,20.91
2023-04-29T02:56:50.850Z,20.90
2023-04-29T02:59:18.199Z,20.86
2023-04-29T03:01:45.268Z,20.88
2023-04-29T03:04:12.611Z,20.88
2023-04-29T03:06:39.745Z,20.86
2023-04-29T03:09:06.797Z,20.85
2023-04-29T03:11:34.011Z,20.83
2023-04-29T03:14:01.840Z,20.81
2023-04-29T03:16:29.706Z,20.81
2023-04-29T03:18:56.572Z,20.81
2023-04-29T03:21:23.647Z,20.82
2023-04-29T03:23:50.707Z,20.80
2023-04-29T03:26:17.625Z,20.79
2023-04-29T03:28:44.617Z,20.79
2023-04-29T03:31:17.023Z,20.78
2023-04-29T03:33:44.243Z,20.77
2023-04-29T03:36:11.371Z,20.76
2023-04-29T03:38:38.382Z,20.75
2023-04-29T03:41:05.913Z,20.74
2023-04-29T03:43:33.008Z,20.74
2023-04-29T03:46:00.113Z,20.72
2023-04-29T03:48:27.111Z,20.71
2023-04-29T03:50:54.006Z,20.71
2023-04-29T03:53:22.118Z,20.73
2023-04-29T03:55:49.162Z,20.71
2023-04-29T03:58:16.306Z,20.71
2023-04-29T04:00:43.574Z,20.70
2023-04-29T04:03:10.591Z,20.71
2023-04-29T04:05:37.819Z,20.69
2023-04-29T04:08:05.011Z,20.68
2023-04-29T04:10:34.233Z,20.67
2023-04-29T04:13:01.141Z,20.66
2023-04-29T04:15:28.149Z,20.67
2023-04-29T04:17:55.185Z,20.66
2023-04-29T04:20:22.207Z,20.63
2023-04-29T04:22:49.421Z,20.65
2023-04-29T04:25:16.427Z,20.60
2023-04-29T04:27:43.350Z,20.60
2023-04-29T04:30:10.613Z,20.60
2023-04-29T04:32:37.729Z,20.60
2023-04-29T04:35:05.073Z,20.60
2023-04-29T04:37:32.011Z,20.58
2023-04-29T04:39:58.899Z,20.57
2023-04-29T04:42:26.240Z,20.57
2023-04-29T04:44:53.635Z,20.57
2023-04-29T04:47:20.645Z,20.55
2023-04-29T04:49:47.604Z,20.54
2023-04-29T04:52:15.120Z,20.54
2023-04-29T04:54:42.074Z,20.54
2023-04-29T04:57:09.046Z,20.53
2023-04-29T04:59:35.981Z,20.54
2023-04-29T05:02:02.998Z,20.55
2023-04-29T05:04:30.263Z,20.54
2023-04-29T05:06:57.354Z,20.51
2023-04-29T05:09:24.422Z,20.51
2023-04-29T05:11:51.484Z,20.47
2023-04-29T05:14:21.480Z,20.49
2023-04-29T05:16:48.512Z,20.48
2023-04-29T05:19:15.553Z,20.48
2023-04-29T05:21:43.001Z,20.50
2023-04-29T05:24:10.036Z,20.48
2023-04-29T05:26:37.067Z,20.49
2023-04-29T05:29:04.303Z,20.48
2023-04-29T05:31:31.665Z,20.46
2023-04-29T05:33:58.920Z,20.45
2023-04-29T05:36:25.855Z,20.45
2023-04-29T05:38:52.814Z,20.43
2023-04-29T05:41:19.826Z,20.40
2023-04-29T05:43:46.786Z,20.38
2023-04-29T05:46:13.786Z,20.39
2023-04-29T05:48:40.958Z,20.37
2023-04-29T05:51:10.408Z,20.37
2023-04-29T05:53:38.729Z,20.38
2023-04-29T05:56:08.641Z,20.37
2023-04-29T05:58:38.588Z,20.38
2023-04-29T06:01:05.583Z,20.36
2023-04-29T06:03:35.305Z,20.35
2023-04-29T06:06:03.139Z,20.34
2023-04-29T06:08:30.498Z,20.34
2023-04-29T06:10:57.399Z,20.33
2023-04-29T06:13:25.342Z,20.32
2023-04-29T06:15:55.394Z,20.33
2023-04-29T06:18:22.451Z,20.31
2023-04-29T06:20:49.348Z,20.32
2023-04-29T06:23:16.332Z,20.30
2023-04-29T06:25:43.532Z,20.30
2023-04-29T06:28:10.676Z,20.30
2023-04-29T06:30:37.673Z,20.30
2023-04-29T06:33:04.763Z,20.28
2023-04-29T06:35:31.844Z,20.28
2023-04-29T06:37:58.872Z,20.29
2023-04-29T06:40:25.942Z,20.29
2023-04-29T06:42:52.960Z,20.29
2023-04-29T06:45:19.888Z,20.26
2023-04-29T06:47:47.209Z,20.27
2023-04-29T06:50:17.191Z,20.27
2023-04-29T06:52:44.166Z,20.25
2023-04-29T06:55:12.176Z,20.24
2023-04-29T06:57:39.153Z,20.25
2023-04-29T07:00:06.808Z,20.24
2023-04-29T07:02:34.320Z,20.24
2023-04-29T07:05:01.541Z,20.23
2023-04-29T07:07:28.625Z,20.22
2023-04-29T07:09:55.921Z,20.23
2023-04-29T07:12:23.208Z,20.22
2023-04-29T07:14:50.245Z,20.21
2023-04-29T07:17:17.280Z,20.22
2023-04-29T07:19:44.177Z,20.21
2023-04-29T07:22:13.462Z,20.21
2023-04-29T07:24:40.394Z,20.21
2023-04-29T07:27:07.792Z,20.20
2023-04-29T07:29:38.957Z,20.21
2023-04-29T07:32:05.932Z,20.21
2023-04-29T07:34:32.954Z,20.20
2023-04-29T07:36:59.869Z,20.20
2023-04-29T07:39:27.322Z,20.19
2023-04-29T07:41:56.120Z,20.20
2023-04-29T07:44:23.302Z,20.18
2023-04-29T07:46:50.352Z,20.18
2023-04-29T07:49:17.372Z,20.18
2023-04-29T07:51:45.407Z,20.18
2023-04-29T07:54:14.640Z,20.17
2023-04-29T07:56:41.605Z,20.17
2023-04-29T07:59:08.794Z,20.17
2023-04-29T08:01:36.028Z,20.15
2023-04-29T08:04:03.407Z,20.15
2023-04-29T08:06:31.202Z,20.14
2023-04-29T08:08:58.252Z,20.15
2023-04-29T08:11:28.098Z,20.17
2023-04-29T08:13:57.489Z,20.13
2023-04-29T08:16:26.489Z,20.13
2023-04-29T08:18:53.838Z,20.16
2023-04-29T08:21:21.089Z,20.15
2023-04-29T08:23:48.429Z,20.13
2023-04-29T08:26:15.647Z,20.15
2023-04-29T08:28:42.880Z,20.16
2023-04-29T08:31:16.918Z,20.22
2023-04-29T08:33:43.935Z,20.28
2023-04-29T08:36:10.994Z,20.33
2023-04-29T08:38:38.349Z,20.38
2023-04-29T08:41:07.947Z,20.42
2023-04-29T08:43:35.797Z,20.48
2023-04-29T08:46:03.586Z,20.55
2023-04-29T08:48:33.285Z,20.60
2023-04-29T08:51:03.113Z,20.67
2023-04-29T08:53:30.423Z,20.71
2023-04-29T08:55:59.205Z,20.80
2023-04-29T08:58:27.028Z,20.85
2023-04-29T09:00:54.413Z,20.94
2023-04-29T09:03:32.353Z,21.00
2023-04-29T09:06:01.421Z,21.07
2023-04-29T09:08:28.775Z,21.16
2023-04-29T09:10:56.610Z,21.23
2023-04-29T09:13:25.892Z,21.29
2023-04-29T09:15:53.009Z,21.37
2023-04-29T09:18:29.539Z,21.44
2023-04-29T09:20:56.795Z,21.51
2023-04-29T09:23:37.164Z,21.59
2023-04-29T09:26:04.204Z,21.66
2023-04-29T09:28:31.460Z,21.73
2023-04-29T09:31:06.874Z,21.81
2023-04-29T09:33:49.882Z,21.89
2023-04-29T09:36:35.777Z,21.95
2023-04-29T09:39:03.112Z,22.03
2023-04-29T09:41:30.547Z,22.09
2023-04-29T09:44:07.534Z,22.16
2023-04-29T09:46:34.999Z,22.23
2023-04-29T09:49:02.514Z,22.29
2023-04-29T09:51:33.251Z,22.37
2023-04-29T09:54:01.813Z,22.44
2023-04-29T09:56:31.242Z,22.51
2023-04-29T09:59:08.324Z,22.57
2023-04-29T10:01:36.156Z,22.65
2023-04-29T10:04:04.099Z,22.71
2023-04-29T10:06:31.504Z,22.71
2023-04-29T10:08:58.784Z,22.70
2023-04-29T10:11:27.296Z,22.73
2023-04-29T10:13:54.274Z,22.74
2023-04-29T10:16:30.250Z,22.74
2023-04-29T10:19:00.484Z,22.75
2023-04-29T10:21:29.726Z,22.75
2023-04-29T10:23:57.898Z,22.75
2023-04-29T10:26:27.858Z,22.76
2023-04-29T10:28:56.594Z,22.77
2023-04-29T10:31:26.237Z,22.76
2023-04-29T10:33:56.220Z,22.77
2023-04-29T10:36:24.109Z,22.77
2023-04-29T10:38:54.774Z,22.79
2023-04-29T10:41:27.280Z,22.79
2023-04-29T10:43:54.729Z,22.79
2023-04-29T10:46:23.472Z,22.79
2023-04-29T10:48:53.014Z,22.79
2023-04-29T10:51:32.093Z,22.79
2023-04-29T10:54:01.369Z,22.80
2023-04-29T10:56:38.381Z,22.82
2023-04-29T10:59:05.832Z,22.83
2023-04-29T11:01:50.641Z,22.83
2023-04-29T11:04:19.601Z,22.83
2023-04-29T11:06:47.948Z,22.83
2023-04-29T11:09:19.816Z,22.84
2023-04-29T11:11:47.107Z,22.84
2023-04-29T11:14:15.170Z,22.85
2023-04-29T11:21:36.718Z,22.88
2023-04-29T11:24:04.939Z,22.89
2023-04-29T11:26:32.451Z,22.89
2023-04-29T11:28:59.456Z,22.88
2023-04-29T11:31:28.779Z,22.89
2023-04-29T11:33:55.935Z,22.89
2023-04-29T11:36:22.979Z,22.88
2023-04-29T11:38:50.084Z,22.87
2023-04-29T11:41:17.294Z,22.86
2023-04-29T11:43:46.713Z,22.83
2023-04-29T11:46:14.935Z,22.83
2023-04-29T11:48:49.723Z,22.81
2023-04-29T11:51:17.973Z,22.82
2023-04-29T11:53:45.378Z,22.85
2023-04-29T11:56:15.805Z,22.88
2023-04-29T11:58:43.583Z,22.88
2023-04-29T12:01:10.910Z,22.91
2023-04-29T12:03:38.315Z,22.95
2023-04-29T12:06:07.845Z,22.98
2023-04-29T12:08:35.426Z,23.04
2023-04-29T12:11:02.646Z,23.09
2023-04-29T12:13:31.332Z,23.12
2023-04-29T12:15:59.815Z,23.15
2023-04-29T12:18:28.199Z,23.17
2023-04-29T12:20:57.242Z,23.25
2023-04-29T12:23:29.040Z,23.28
2023-04-29T12:25:57.230Z,23.32
2023-04-29T12:28:25.044Z,23.54
2023-04-29T12:30:54.339Z,23.58
2023-04-29T12:33:23.552Z,23.61
2023-04-29T12:35:51.361Z,23.66
2023-04-29T12:38:22.356Z,23.69
2023-04-29T12:40:51.360Z,23.74
2023-04-29T12:43:19.337Z,23.66
2023-04-29T12:45:46.688Z,23.66
2023-04-29T12:48:25.426Z,23.66
2023-04-29T12:50:58.989Z,23.77
2023-04-29T12:53:26.588Z,23.82
2023-04-29T12:55:53.842Z,23.87
2023-04-29T12:58:20.945Z,23.89
2023-04-29T13:00:47.908Z,23.94
2023-04-29T13:03:15.448Z,23.94
2023-04-29T13:05:43.412Z,23.92
2023-04-29T13:08:10.604Z,23.90
2023-04-29T13:10:37.629Z,23.90
2023-04-29T13:13:04.586Z,23.90
2023-04-29T13:15:31.770Z,23.87
2023-04-29T13:17:59.149Z,23.82
2023-04-29T13:20:26.263Z,23.80
2023-04-29T13:22:53.759Z,23.78
2023-04-29T13:25:21.053Z,23.76
2023-04-29T13:27:48.716Z,23.69
2023-04-29T13:30:16.431Z,23.68
2023-04-29T13:32:49.448Z,23.65
2023-04-29T13:35:21.627Z,23.62
2023-04-29T13:37:49.641Z,23.60
2023-04-29T13:40:20.620Z,23.57
2023-04-29T13:42:50.509Z,23.53
2023-04-29T13:45:23.878Z,23.49
2023-04-29T13:50:57.531Z,23.46
2023-04-29T13:56:28.476Z,23.36
2023-04-29T14:01:17.266Z,23.32
2023-04-29T14:03:46.721Z,23.31
2023-04-29T14:06:13.892Z,23.26
2023-04-29T14:08:41.154Z,23.24
2023-04-29T14:11:08.255Z,23.21
2023-04-29T14:13:35.144Z,23.19
2023-04-29T14:16:04.287Z,23.17
2023-04-29T14:18:32.192Z,23.16
2023-04-29T14:21:00.174Z,23.15
2023-04-29T14:23:27.398Z,23.14
2023-04-29T14:25:58.900Z,23.13
2023-04-29T14:28:33.917Z,23.11
2023-04-29T14:31:01.515Z,23.10
2023-04-29T14:33:28.452Z,23.08
2023-04-29T14:35:55.386Z,23.08
2023-04-29T14:38:22.382Z,23.07
2023-04-29T14:40:49.574Z,23.05
2023-04-29T14:43:16.581Z,23.04
2023-04-29T14:45:44.468Z,23.03
2023-04-29T14:48:12.098Z,23.02
2023-04-29T14:50:39.027Z,23.02
2023-04-29T14:53:07.705Z,23.00
2023-04-29T14:55:34.923Z,23.00
2023-04-29T14:58:05.301Z,22.99
2023-04-29T15:00:32.360Z,22.98
2023-04-29T15:02:59.418Z,22.98
2023-04-29T15:05:26.551Z,22.97
2023-04-29T15:07:54.026Z,22.94
2023-04-29T15:10:21.309Z,22.92
2023-04-29T15:12:48.354Z,22.93
2023-04-29T15:15:15.387Z,22.93
2023-04-29T15:17:42.473Z,22.91
2023-04-29T15:20:10.790Z,22.88
2023-04-29T15:22:37.988Z,22.89
2023-04-29T15:25:05.417Z,22.87
2023-04-29T15:27:32.415Z,22.84
2023-04-29T15:29:59.463Z,22.85
2023-04-29T15:32:31.791Z,22.83
2023-04-29T15:35:02.989Z,22.83
2023-04-29T15:37:30.707Z,22.82
2023-04-29T15:40:00.138Z,22.80
2023-04-29T15:42:27.208Z,22.79
2023-04-29T15:44:56.667Z,22.77
2023-04-29T15:47:23.701Z,22.76
2023-04-29T15:49:53.804Z,22.76
2023-04-29T15:52:20.985Z,22.76
2023-04-29T15:54:47.985Z,22.75
2023-04-29T15:57:15.194Z,22.73
2023-04-29T15:59:42.095Z,22.73
2023-04-29T16:02:11.321Z,22.72
2023-04-29T16:04:38.744Z,22.70
2023-04-29T16:07:05.958Z,22.70
2023-04-29T16:09:36.649Z,22.69
2023-04-29T16:12:03.688Z,22.69
2023-04-29T16:14:30.666Z,22.66
2023-04-29T16:16:58.025Z,22.63
2023-04-29T16:19:25.393Z,22.60
2023-04-29T16:21:54.827Z,22.58
2023-04-29T16:24:22.255Z,22.58
2023-04-29T16:26:50.429Z,22.59
2023-04-29T16:29:18.916Z,22.58
2023-04-29T16:31:46.607Z,22.56
2023-04-29T16:34:13.822Z,22.56
2023-04-29T16:36:40.807Z,22.58
2023-04-29T16:39:07.714Z,22.56
2023-04-29T16:41:34.868Z,22.53
2023-04-29T16:44:01.741Z,22.53
2023-04-29T16:46:30.782Z,22.52
2023-04-29T16:48:57.808Z,22.51
2023-04-29T16:51:27.952Z,22.51
2023-04-29T16:53:55.263Z,22.44
2023-04-29T16:56:23.150Z,22.41
2023-04-29T16:59:01.879Z,22.39
2023-04-29T17:01:29.688Z,22.33
2023-04-29T17:03:56.831Z,22.33
2023-04-29T17:06:24.222Z,22.32
2023-04-29T17:08:51.696Z,22.35
2023-04-29T17:11:18.907Z,22.38
2023-04-29T17:13:46.774Z,22.45
2023-04-29T17:16:14.612Z,22.50
2023-04-29T17:18:42.032Z,22.52
2023-04-29T17:21:09.496Z,22.56
2023-04-29T17:23:36.760Z,22.59
2023-04-29T17:26:04.785Z,22.62
2023-04-29T17:28:34.800Z,22.63
2023-04-29T17:31:02.860Z,22.65
2023-04-29T17:33:35.008Z,22.67
2023-04-29T17:36:02.393Z,22.68
2023-04-29T17:38:30.028Z,22.71
2023-04-29T17:40:56.861Z,22.70
2023-04-29T17:43:23.970Z,22.70
2023-04-29T17:45:50.972Z,22.71
2023-04-29T17:48:19.694Z,22.71
2023-04-29T17:50:47.236Z,22.70
2023-04-29T17:53:14.608Z,22.70
2023-04-29T17:55:42.100Z,22.68
2023-04-29T17:58:09.439Z,22.65
2023-04-29T18:00:36.465Z,22.65
2023-04-29T18:03:03.839Z,22.61
2023-04-29T18:05:30.811Z,22.61
2023-04-29T18:07:57.778Z,22.59
2023-04-29T18:10:24.748Z,22.56
2023-04-29T18:12:51.645Z,22.53
2023-04-29T18:15:18.704Z,22.52
2023-04-29T18:17:45.719Z,22.49
2023-04-29T18:20:15.178Z,22.49
2023-04-29T18:22:42.125Z,22.48
2023-04-29T18:25:09.414Z,22.43
2023-04-29T18:27:36.652Z,22.44
2023-04-29T18:30:03.972Z,22.40
2023-04-29T18:32:30.983Z,22.38
2023-04-29T18:34:57.952Z,22.34
2023-04-29T18:37:24.898Z,22.32
2023-04-29T18:39:51.938Z,22.28
2023-04-29T18:42:19.272Z,22.25
2023-04-29T18:44:47.938Z,22.23
2023-04-29T18:47:14.999Z,22.21
2023-04-29T18:49:41.943Z,22.16
2023-04-29T18:52:09.125Z,22.15
2023-04-29T18:54:36.058Z,22.13
2023-04-29T18:57:02.956Z,22.07
2023-04-29T18:59:30.212Z,22.07
2023-04-29T19:01:57.277Z,22.03
2023-04-29T19:04:24.416Z,22.01
2023-04-29T19:06:51.532Z,21.98
2023-04-29T19:09:18.413Z,22.02
2023-04-29T19:11:47.187Z,22.02
2023-04-29T19:14:14.023Z,22.04
2023-04-29T19:16:41.043Z,22.05
2023-04-29T19:19:07.891Z,22.09
2023-04-29T19:21:35.109Z,22.12
2023-04-29T19:24:02.056Z,22.15
2023-04-29T19:26:29.626Z,22.18
2023-04-29T19:28:57.630Z,22.23
2023-04-29T19:31:24.478Z,22.26
2023-04-29T19:33:52.791Z,22.30
2023-04-29T19:36:19.658Z,22.34
2023-04-29T19:38:49.543Z,22.40
2023-04-29T19:41:16.637Z,22.44
2023-04-29T19:43:43.621Z,22.48
2023-04-29T19:46:13.776Z,22.52
2023-04-29T19:48:40.679Z,22.57
2023-04-29T19:51:08.729Z,22.60
2023-04-29T19:53:36.543Z,22.64
2023-04-29T19:56:03.564Z,22.67
2023-04-29T19:58:30.454Z,22.70
2023-04-29T20:00:57.315Z,22.73
2023-04-29T20:03:24.351Z,22.75
2023-04-29T20:05:51.341Z,22.75
2023-04-29T20:08:18.318Z,22.79
2023-04-29T20:10:46.338Z,22.80
2023-04-29T20:13:13.263Z,22.81
2023-04-29T20:15:40.172Z,22.82
2023-04-29T20:18:07.210Z,22.83
2023-04-29T20:20:34.167Z,22.85
2023-04-29T20:23:01.178Z,22.85
2023-04-29T20:25:28.948Z,22.85
2023-04-29T20:27:58.180Z,22.85
2023-04-29T20:30:26.506Z,22.88
2023-04-29T20:32:53.456Z,22.85
2023-04-29T20:35:21.290Z,22.85
2023-04-29T20:37:48.394Z,22.85
2023-04-29T20:40:15.555Z,22.84
2023-04-29T20:42:42.559Z,22.83
2023-04-29T20:45:10.028Z,22.83
2023-04-29T20:47:36.873Z,22.83
2023-04-29T20:50:04.995Z,22.83
2023-04-29T20:52:34.584Z,22.82
2023-04-29T20:55:01.802Z,22.83
2023-04-29T20:57:28.664Z,22.82
2023-04-29T20:59:55.984Z,22.82
2023-04-29T21:02:23.031Z,22.82
2023-04-29T21:04:49.922Z,22.80
2023-04-29T21:07:16.927Z,22.79
2023-04-29T21:09:43.931Z,22.78
2023-04-29T21:12:10.812Z,22.78
2023-04-29T21:14:39.027Z,22.76
2023-04-29T21:17:06.939Z,22.73
2023-04-29T21:19:35.325Z,22.71
2023-04-29T21:22:02.261Z,22.69
2023-04-29T21:24:31.736Z,22.65
2023-04-29T21:26:58.624Z,22.64
2023-04-29T21:29:25.672Z,22.62
2023-04-29T21:31:54.375Z,22.62
2023-04-29T21:34:21.512Z,22.59
2023-04-29T21:36:48.434Z,22.57
2023-04-29T21:39:15.346Z,22.55
2023-04-29T21:41:43.887Z,22.53
2023-04-29T21:44:11.710Z,22.50
2023-04-29T21:46:38.887Z,22.46
2023-04-29T21:49:05.940Z,22.45
2023-04-29T21:51:34.291Z,22.41
2023-04-29T21:54:01.503Z,22.41
2023-04-29T21:56:28.401Z,22.37
2023-04-29T21:58:55.460Z,22.34
2023-04-29T22:01:32.227Z,22.33
2023-04-29T22:03:59.349Z,22.36
2023-04-29T22:06:26.318Z,22.38
2023-04-29T22:08:53.220Z,22.43
2023-04-29T22:11:22.044Z,22.48
2023-04-29T22:13:49.311Z,22.51
2023-04-29T22:16:16.737Z,22.58
2023-04-29T22:18:43.722Z,22.60
2023-04-29T22:21:11.016Z,22.65
2023-04-29T22:23:39.573Z,22.70
2023-04-29T22:26:08.793Z,22.74
2023-04-29T22:28:35.812Z,22.76
2023-04-29T22:31:02.784Z,22.77
2023-04-29T22:33:30.293Z,22.78
2023-04-29T22:35:57.136Z,22.80
2023-04-29T22:38:24.077Z,22.81
2023-04-29T22:40:51.976Z,22.78
2023-04-29T22:43:19.142Z,22.58
2023-04-29T22:45:55.393Z,22.48
2023-04-29T22:48:23.253Z,22.62
2023-04-29T22:50:52.324Z,22.70
2023-04-29T22:53:19.500Z,22.74
2023-04-29T22:55:50.428Z,22.78
2023-04-29T22:58:17.265Z,22.80
2023-04-29T23:00:45.362Z,22.84
2023-04-29T23:03:12.332Z,22.88
2023-04-29T23:05:39.996Z,22.89
2023-04-29T23:08:07.297Z,22.92
2023-04-29T23:10:34.719Z,22.94
2023-04-29T23:13:03.219Z,22.96
2023-04-29T23:15:30.215Z,22.97
2023-04-29T23:18:00.947Z,22.98
2023-04-29T23:20:27.758Z,22.98
2023-04-29T23:22:54.681Z,22.99
2023-04-29T23:25:21.576Z,22.99
2023-04-29T23:27:48.421Z,23.00
2023-04-29T23:30:17.587Z,23.01
2023-04-29T23:32:44.504Z,23.00
2023-04-29T23:35:12.385Z,23.01
2023-04-29T23:37:39.371Z,23.02
2023-04-29T23:40:07.346Z,23.02
2023-04-29T23:42:34.541Z,23.02
2023-04-29T23:45:01.397Z,23.03
2023-04-29T23:47:28.341Z,23.02
2023-04-29T23:49:55.371Z,23.02
2023-04-29T23:52:22.608Z,23.03
2023-04-29T23:54:49.451Z,23.02
2023-04-29T23:57:18.646Z,23.02
2023-04-29T23:59:45.953Z,23.01
